Raritan, Illinois
Current Conditions -  °F | °C
As of 11:15 PM on Thursday 30 Oct 2014 (Local Time) from KMQB Reporting Station
Overcast Overcast  
Wind Chill:   Ceiling: 9500
Heat Index:   Visibility: 7mi
Dew Point:   Wind: 6mph
Humidity: 90%   Direction: 360°N
Pressure: 30.12"   Gusts: NA
Location:  40.7°N, 90.83°W
Report Text: KMQB 310415Z AUTO 36005KT 7SM OVC095 07/05 A3012 RMK AO2 T00670051
Loading
Personal Weather Stations






























Interactive Weather Map
Tropical Storm Tracking
New forecast layout! Learn more

10-Day Weather Forecast

Advertisements
Track Severe Weather on mobile